Terminal Aerodrome Forecast
Issued by NWS

Home | Current Version | Previous Version | Text Only | Print | Product List | Glossary Off
Versions: 1 2 3 4 5 6 7 8 9 10 11 12 13 14 15 16 17 18 19 20 21 22 23 24 25 26 27 28 29 30 31 32 33

000
FTUS43 KLOT 241128
TAFDPA
TAF
KDPA 241128Z 2412/2512 13005KT P6SM VCSH SCT040 BKN080
     FM241400 15010KT P6SM SCT040 BKN080
     FM241900 18011G17KT P6SM SCT040 BKN080
     FM250300 18013G20KT P6SM -SHRA VCTS BKN040CB OVC090=

USA.gov is the U.S. government's official web portal to all federal, state and local government web resources and services.